Yakima, WA (98901)

5:49 PM PST on January 21, 2017 (GMT -0800)
Terraced Estates | | Change Station

Elev 1302 ft 46.61 °N, 120.43 °W | Updated 9 minutes ago

Mostly Cloudy
Mostly Cloudy
35.9 °F
Feels Like 36 °F
N
0.0
Wind Variable Wind from SSE
Gusts 0.0 mph

Today
High -- | Low -- °F
--% Chance of Precip.
Yesterday
High -- | Low -- °F
Precip. -- in
Pressure 29.55 in
Visibility 5.0 miles
Clouds Overcast 1200 ft
Windchill 36 °F
Dew Point 34 °F
Humidity 94%
Rainfall 0.05 in
Snow Depth Not available.
7:37 AM 4:50 PM
Waning Crescent, 30% visible
SPECI K1YT 220129Z AUTO 00000KT 5SM -RA OVC012 02/01 A2955 RMK AO2 RAB0058 CIG 012V016 $
Pressure 29.55 in
Visibility 5.0 miles
Clouds Overcast 1200 ft
Windchill 36 °F
Dew Point 34 °F
Humidity 94%
Rainfall 0.05 in
Snow Depth Not available.
7:37 AM 4:50 PM
Waning Crescent, 30% visible
SPECI K1YT 220129Z AUTO 00000KT 5SM -RA OVC012 02/01 A2955 RMK AO2 RAB0058 CIG 012V016 $

Get Your Daily Forecast Email!

Thanks for signing up!

Be on the lookout for a verification email in your inbox.

You'll start receiving the daily forecast at 8 AM.

×

10-Day Weather Forecast

Almanac

Astronomy

Jan. 21, 2017 Rise Set
Actual Time
Civil Twilight
Nautical Twilight
Astronomical Twilight
Moon
Length of Visible Light
Length of Day
Tomorrow will be .
, % of the Moon is Illuminated

Today's Extremes

State Highs State Lows

Community

WunderPhotos

Upload Photos

1,962,540 photos uploaded!

WunderBlog® & News

Nearby

Air Quality

  Air Quality AQ Index Pollutant
Not available.

Snow Depth

Station Depth Elevation

Earthquake Activity

City Distance Mag. Time & Date
Minimum magnitude displayed is 2.5.

Coastal Water Temperatures

Place Temperature

Stations

Nearby Weather Stations

Station Location Temp. Windchill Dew Point Humidity Wind Precip. Elev Updated Type
                   

Watches & Warnings

There are currently no watches in effect.